createdAt,value
2023-02-26T00:01:45.239Z,7.33
2023-02-26T00:04:48.131Z,7.50
2023-02-26T00:07:50.527Z,12.45
2023-02-26T00:10:54.881Z,7.20
2023-02-26T00:13:59.952Z,10.60
2023-02-26T00:17:30.683Z,11.87
2023-02-26T00:20:36.692Z,10.33
2023-02-26T00:23:39.650Z,10.60
2023-02-26T00:26:45.780Z,10.63
2023-02-26T00:29:51.476Z,11.63
2023-02-26T00:32:54.347Z,11.50
2023-02-26T00:36:06.326Z,12.40
2023-02-26T00:39:36.443Z,12.37
2023-02-26T00:42:39.560Z,10.60
2023-02-26T00:46:01.099Z,11.48
2023-02-26T00:49:39.372Z,12.30
2023-02-26T00:52:44.500Z,11.50
2023-02-26T00:55:47.197Z,10.65
2023-02-26T00:58:49.603Z,11.90
2023-02-26T01:01:53.893Z,11.12
2023-02-26T01:04:56.632Z,12.03
2023-02-26T01:08:06.612Z,11.00
2023-02-26T01:11:12.060Z,11.82
2023-02-26T01:14:20.513Z,12.02
2023-02-26T01:17:34.173Z,14.45
2023-02-26T01:20:49.784Z,11.23
2023-02-26T01:23:52.647Z,13.30
2023-02-26T01:26:58.529Z,13.07
2023-02-26T01:30:03.720Z,11.80
2023-02-26T01:33:40.928Z,11.00
2023-02-26T01:37:00.238Z,12.17
2023-02-26T01:40:25.865Z,14.83
2023-02-26T01:43:39.659Z,10.50
2023-02-26T01:47:30.113Z,12.52
2023-02-26T01:50:36.402Z,12.07
2023-02-26T01:53:40.839Z,12.17
2023-02-26T01:56:50.235Z,11.20
2023-02-26T01:59:54.326Z,12.95
2023-02-26T02:02:59.874Z,12.82
2023-02-26T02:06:07.801Z,13.52
2023-02-26T02:09:10.880Z,12.13
2023-02-26T02:12:24.193Z,11.73
2023-02-26T02:15:45.115Z,12.13
2023-02-26T02:19:14.175Z,14.63
2023-02-26T02:22:28.550Z,13.80
2023-02-26T02:25:55.707Z,12.97
2023-02-26T02:29:07.038Z,14.23
2023-02-26T02:32:14.814Z,11.60
2023-02-26T02:35:28.014Z,16.55
2023-02-26T02:38:51.366Z,12.75
2023-02-26T02:41:59.349Z,14.00
2023-02-26T02:45:14.922Z,14.47
2023-02-26T02:48:45.228Z,11.88
2023-02-26T02:52:25.532Z,14.82
2023-02-26T02:55:36.940Z,11.73
2023-02-26T02:58:49.448Z,15.63
2023-02-26T03:02:12.583Z,12.87
2023-02-26T03:05:15.890Z,12.18
2023-02-26T03:08:23.141Z,14.45
2023-02-26T03:11:28.905Z,11.20
2023-02-26T03:14:34.380Z,11.70
2023-02-26T03:17:43.342Z,11.43
2023-02-26T03:21:04.534Z,12.80
2023-02-26T03:24:41.912Z,11.07
2023-02-26T03:27:53.686Z,15.80
2023-02-26T03:31:17.667Z,10.57
2023-02-26T03:34:59.721Z,11.33
2023-02-26T03:38:07.729Z,8.93
2023-02-26T03:41:22.601Z,11.48
2023-02-26T03:44:43.041Z,11.90
2023-02-26T03:47:54.731Z,11.57
2023-02-26T03:51:03.477Z,13.40
2023-02-26T03:54:19.413Z,14.02
2023-02-26T03:57:25.229Z,10.50
2023-02-26T04:00:32.974Z,10.50
2023-02-26T04:04:03.722Z,11.80
2023-02-26T04:07:12.019Z,11.70
2023-02-26T04:10:22.296Z,8.98
2023-02-26T04:13:26.015Z,11.05
2023-02-26T04:16:29.456Z,9.80
2023-02-26T04:19:35.143Z,10.67
2023-02-26T04:22:38.410Z,10.80
2023-02-26T04:25:40.904Z,12.02
2023-02-26T04:28:44.456Z,9.73
2023-02-26T04:31:47.915Z,11.45
2023-02-26T04:34:53.150Z,10.67
2023-02-26T04:37:57.709Z,8.43
2023-02-26T04:41:01.550Z,10.85
2023-02-26T04:44:05.082Z,10.68
2023-02-26T04:47:07.998Z,12.45
2023-02-26T04:50:13.513Z,10.90
2023-02-26T04:53:18.017Z,10.87
2023-02-26T04:56:20.754Z,9.38
2023-02-26T04:59:23.533Z,10.20
2023-02-26T05:02:28.974Z,10.98
2023-02-26T05:05:32.385Z,10.47
2023-02-26T05:08:34.740Z,12.13
2023-02-26T05:11:39.087Z,11.82
2023-02-26T05:14:42.274Z,11.80
2023-02-26T05:17:44.985Z,10.10
2023-02-26T05:20:53.681Z,9.17
2023-02-26T05:23:56.353Z,10.23
2023-02-26T05:26:58.957Z,11.55
2023-02-26T05:30:01.820Z,10.13
2023-02-26T05:33:06.864Z,9.32
2023-02-26T05:36:10.138Z,10.93
2023-02-26T05:39:12.658Z,11.20
2023-02-26T05:42:18.329Z,11.25
2023-02-26T05:45:20.823Z,10.50
2023-02-26T05:48:23.778Z,10.27
2023-02-26T05:51:26.349Z,10.30
2023-02-26T05:54:32.029Z,10.20
2023-02-26T05:57:34.472Z,9.55
2023-02-26T06:00:41.626Z,11.25
2023-02-26T06:03:44.626Z,10.18
2023-02-26T06:06:47.094Z,8.40
2023-02-26T06:09:49.893Z,9.17
2023-02-26T06:12:52.495Z,10.65
2023-02-26T06:15:55.299Z,10.80
2023-02-26T06:18:57.833Z,10.88
2023-02-26T06:22:00.604Z,10.53
2023-02-26T06:25:05.953Z,11.20
2023-02-26T06:28:10.188Z,11.60
2023-02-26T06:31:15.357Z,9.27
2023-02-26T06:34:33.622Z,10.85
2023-02-26T06:37:38.914Z,9.90
2023-02-26T06:40:41.964Z,9.13
2023-02-26T06:43:44.347Z,9.38
2023-02-26T06:46:49.520Z,9.20
2023-02-26T06:49:51.937Z,8.95
2023-02-26T06:52:54.737Z,8.33
2023-02-26T06:56:00.109Z,11.17
2023-02-26T06:59:03.216Z,9.60
2023-02-26T07:02:05.711Z,8.93
2023-02-26T07:05:24.335Z,7.50
2023-02-26T07:08:29.513Z,7.33
2023-02-26T07:11:37.234Z,5.27
2023-02-26T07:14:45.495Z,6.07
2023-02-26T07:17:50.534Z,5.68
2023-02-26T07:20:58.421Z,4.82
2023-02-26T07:24:03.248Z,5.80
2023-02-26T07:27:05.647Z,4.93
2023-02-26T07:30:10.519Z,5.87
2023-02-26T07:33:18.937Z,4.40
2023-02-26T07:36:24.542Z,6.12
2023-02-26T07:39:27.319Z,7.30
2023-02-26T07:42:30.061Z,6.70
2023-02-26T07:45:33.737Z,5.32
2023-02-26T07:48:39.017Z,4.35
2023-02-26T07:51:45.998Z,4.87
2023-02-26T07:54:51.240Z,5.67
2023-02-26T07:57:53.607Z,6.47
2023-02-26T08:00:56.455Z,6.68
2023-02-26T08:03:59.177Z,5.57
2023-02-26T08:07:01.836Z,4.78
2023-02-26T08:10:13.008Z,5.60
2023-02-26T08:13:15.465Z,6.80
2023-02-26T08:16:20.093Z,5.35
2023-02-26T08:19:24.915Z,7.30
2023-02-26T08:22:27.681Z,10.55
2023-02-26T08:25:30.186Z,7.17
2023-02-26T08:28:34.952Z,8.87
2023-02-26T08:31:37.511Z,8.77
2023-02-26T08:34:42.748Z,9.18
2023-02-26T08:37:45.198Z,8.15
2023-02-26T08:40:52.835Z,7.73
2023-02-26T08:43:55.912Z,7.60
2023-02-26T08:46:58.861Z,6.20
2023-02-26T08:50:01.390Z,6.82
2023-02-26T08:53:07.069Z,4.30
2023-02-26T08:56:09.494Z,3.87
2023-02-26T08:59:13.103Z,4.77
2023-02-26T09:02:15.568Z,4.32
2023-02-26T09:05:18.915Z,4.97
2023-02-26T09:08:24.578Z,4.55
2023-02-26T09:11:27.531Z,3.63
2023-02-26T09:14:30.086Z,4.30
2023-02-26T09:17:34.073Z,3.90
2023-02-26T09:20:38.838Z,4.37
2023-02-26T09:23:41.528Z,4.45
2023-02-26T09:26:43.962Z,5.13
2023-02-26T09:29:46.647Z,4.97
2023-02-26T09:32:49.089Z,4.15
2023-02-26T09:35:52.937Z,4.78
2023-02-26T09:38:55.273Z,3.28
2023-02-26T09:42:02.203Z,3.53
2023-02-26T09:45:06.470Z,4.17
2023-02-26T09:48:13.643Z,5.70
2023-02-26T09:51:21.434Z,3.65
2023-02-26T09:54:32.366Z,5.10
2023-02-26T09:57:42.435Z,4.37
2023-02-26T10:00:52.531Z,4.40
2023-02-26T10:04:28.138Z,7.60
2023-02-26T10:07:46.367Z,5.03
2023-02-26T10:11:06.293Z,5.12
2023-02-26T10:14:30.438Z,4.23
2023-02-26T10:18:13.585Z,4.70
2023-02-26T10:21:25.579Z,4.82
2023-02-26T10:24:45.006Z,4.70
2023-02-26T10:27:50.596Z,3.05
2023-02-26T10:31:06.228Z,5.53
2023-02-26T10:34:27.039Z,4.90
2023-02-26T10:37:51.286Z,4.47
2023-02-26T10:41:02.259Z,5.05
2023-02-26T10:44:22.547Z,4.07
2023-02-26T10:47:35.853Z,4.57
2023-02-26T10:50:49.084Z,6.63
2023-02-26T10:53:59.754Z,3.75
2023-02-26T10:57:11.098Z,4.37
2023-02-26T11:00:23.887Z,4.78
2023-02-26T11:03:42.536Z,3.80
2023-02-26T11:06:55.166Z,4.60
2023-02-26T11:10:04.667Z,6.00
2023-02-26T11:13:13.032Z,4.55
2023-02-26T11:16:20.907Z,4.22
2023-02-26T11:19:33.390Z,6.30
2023-02-26T11:22:37.751Z,5.50
2023-02-26T11:25:40.519Z,5.50
2023-02-26T11:28:45.267Z,5.65
2023-02-26T11:31:55.288Z,6.45
2023-02-26T11:34:58.193Z,4.37
2023-02-26T11:38:05.393Z,5.37
2023-02-26T11:41:09.200Z,4.68
2023-02-26T11:44:18.567Z,11.27
2023-02-26T11:47:25.363Z,3.67
2023-02-26T11:50:30.669Z,9.83
2023-02-26T11:53:42.311Z,4.80
2023-02-26T11:56:47.190Z,3.00
2023-02-26T11:59:53.420Z,4.25
2023-02-26T12:03:15.686Z,3.58
2023-02-26T12:06:21.125Z,3.73
2023-02-26T12:09:27.405Z,4.40
2023-02-26T12:12:52.713Z,3.72
2023-02-26T12:15:55.052Z,4.10
2023-02-26T12:19:06.059Z,3.47
2023-02-26T12:22:44.886Z,4.77
2023-02-26T12:25:50.548Z,4.53
2023-02-26T12:29:22.166Z,4.10
2023-02-26T12:33:03.519Z,4.90
2023-02-26T12:36:49.030Z,6.30
2023-02-26T12:39:54.902Z,3.97
2023-02-26T12:43:10.836Z,4.20
2023-02-26T12:46:23.613Z,3.80
2023-02-26T12:49:52.100Z,3.03
2023-02-26T12:53:31.049Z,3.17
2023-02-26T12:57:11.146Z,4.10
2023-02-26T13:00:27.535Z,4.07
2023-02-26T13:03:57.788Z,3.92
2023-02-26T13:07:10.467Z,4.37
2023-02-26T13:10:34.247Z,4.78
2023-02-26T13:14:01.811Z,4.03
2023-02-26T13:17:12.148Z,5.00
2023-02-26T13:20:25.275Z,4.57
2023-02-26T13:23:37.861Z,4.15
2023-02-26T13:26:45.003Z,3.83
2023-02-26T13:30:06.345Z,4.40
2023-02-26T13:33:19.821Z,3.40
2023-02-26T13:36:27.081Z,5.05
2023-02-26T13:39:42.129Z,4.35
2023-02-26T13:43:06.074Z,6.43
2023-02-26T13:46:44.645Z,3.60
2023-02-26T13:50:15.946Z,5.30
2023-02-26T13:53:24.631Z,5.05
2023-02-26T13:56:32.828Z,7.70
2023-02-26T13:59:38.318Z,2.97
2023-02-26T14:02:50.597Z,3.03
2023-02-26T14:06:09.923Z,3.33
2023-02-26T14:09:24.223Z,3.37
2023-02-26T14:12:35.671Z,2.95
2023-02-26T14:16:13.638Z,3.15
2023-02-26T14:19:36.311Z,2.77
2023-02-26T14:22:43.367Z,3.80
2023-02-26T14:25:48.685Z,3.87
2023-02-26T14:28:58.948Z,3.80
2023-02-26T14:32:10.860Z,4.40
2023-02-26T14:35:20.954Z,3.10
2023-02-26T14:38:30.879Z,3.83
2023-02-26T14:41:40.050Z,2.62
2023-02-26T14:44:50.506Z,9.50
2023-02-26T14:47:53.609Z,4.20
2023-02-26T14:51:23.817Z,4.47
2023-02-26T14:54:54.792Z,3.43
2023-02-26T14:58:15.974Z,2.80
2023-02-26T15:01:39.186Z,4.65
2023-02-26T15:04:52.845Z,2.40
2023-02-26T15:08:28.872Z,2.97
2023-02-26T15:11:48.143Z,2.90
2023-02-26T15:15:05.832Z,2.20
2023-02-26T15:18:20.734Z,12.13
2023-02-26T15:21:46.049Z,3.70
2023-02-26T15:24:49.108Z,4.33
2023-02-26T15:27:53.974Z,3.83
2023-02-26T15:31:00.187Z,4.37
2023-02-26T15:34:03.386Z,3.58
2023-02-26T15:37:20.752Z,22.90
2023-02-26T15:40:24.619Z,23.87
2023-02-26T15:43:31.489Z,9.30
2023-02-26T15:46:42.178Z,5.80
2023-02-26T15:49:48.437Z,3.25
2023-02-26T15:52:55.935Z,3.75
2023-02-26T15:56:06.024Z,4.17
2023-02-26T15:59:14.171Z,2.67
2023-02-26T16:02:27.408Z,2.55
2023-02-26T16:05:31.692Z,3.12
2023-02-26T16:08:34.274Z,3.10
2023-02-26T16:11:42.712Z,2.67
2023-02-26T16:14:50.681Z,4.07
2023-02-26T16:17:55.519Z,4.22
2023-02-26T16:21:01.486Z,4.35
2023-02-26T16:24:23.131Z,4.03
2023-02-26T16:27:31.110Z,5.17
2023-02-26T16:30:36.914Z,4.10
2023-02-26T16:33:41.111Z,3.90
2023-02-26T16:36:46.692Z,5.05
2023-02-26T16:40:11.127Z,1.92
2023-02-26T16:43:33.532Z,5.00
2023-02-26T16:46:48.687Z,4.30
2023-02-26T16:49:56.827Z,4.15
2023-02-26T16:53:07.918Z,6.00
2023-02-26T16:56:16.828Z,5.18
2023-02-26T16:59:24.030Z,4.83
2023-02-26T17:02:29.607Z,13.73
2023-02-26T17:05:36.485Z,9.30
2023-02-26T17:08:49.131Z,8.10
2023-02-26T17:12:12.703Z,5.97
2023-02-26T17:15:28.011Z,7.53
2023-02-26T17:18:34.030Z,4.30
2023-02-26T17:21:43.419Z,5.25
2023-02-26T17:24:59.597Z,5.53
2023-02-26T17:28:04.846Z,6.20
2023-02-26T17:31:08.078Z,5.33
2023-02-26T17:34:11.697Z,6.83
2023-02-26T17:37:22.268Z,6.25
2023-02-26T17:40:29.587Z,4.40
2023-02-26T17:43:33.100Z,5.87
2023-02-26T17:46:38.232Z,6.43
2023-02-26T17:49:40.882Z,4.43
2023-02-26T17:52:43.307Z,5.40
2023-02-26T17:55:47.580Z,6.95
2023-02-26T17:58:53.437Z,5.55
2023-02-26T18:01:56.204Z,4.33
2023-02-26T18:04:58.963Z,5.67
2023-02-26T18:08:01.407Z,8.75
2023-02-26T18:11:04.544Z,4.70
2023-02-26T18:14:07.132Z,4.95
2023-02-26T18:17:14.641Z,5.07
2023-02-26T18:20:22.758Z,5.67
2023-02-26T18:23:27.780Z,6.57
2023-02-26T18:26:32.870Z,4.68
2023-02-26T18:29:37.968Z,8.60
2023-02-26T18:32:40.442Z,7.67
2023-02-26T18:35:49.388Z,6.30
2023-02-26T18:38:59.621Z,5.78
2023-02-26T18:42:02.381Z,5.60
2023-02-26T18:45:05.100Z,6.22
2023-02-26T18:48:11.477Z,4.97
2023-02-26T18:51:14.448Z,5.73
2023-02-26T18:54:19.649Z,5.32
2023-02-26T18:57:23.089Z,4.22
2023-02-26T19:00:33.961Z,5.50
2023-02-26T19:03:36.529Z,6.07
2023-02-26T19:06:39.510Z,6.93
2023-02-26T19:09:44.729Z,5.75
2023-02-26T19:12:47.864Z,7.57
2023-02-26T19:15:52.616Z,5.28
2023-02-26T19:18:55.359Z,5.83
2023-02-26T19:21:58.702Z,6.93
2023-02-26T19:25:01.451Z,5.07
2023-02-26T19:28:04.788Z,6.57
2023-02-26T19:31:07.621Z,6.37
2023-02-26T19:34:10.793Z,5.77
2023-02-26T19:37:13.749Z,8.43
2023-02-26T19:40:19.696Z,6.22
2023-02-26T19:43:23.430Z,7.03
2023-02-26T19:46:25.995Z,5.62
2023-02-26T19:49:29.016Z,6.23
2023-02-26T19:52:36.606Z,4.20
2023-02-26T19:55:41.236Z,4.87
2023-02-26T19:58:43.710Z,6.18
2023-02-26T20:01:49.788Z,4.97
2023-02-26T20:04:52.528Z,5.30
2023-02-26T20:07:56.385Z,7.73
2023-02-26T20:10:59.184Z,5.47
2023-02-26T20:14:02.541Z,5.12
2023-02-26T20:17:05.366Z,6.85
2023-02-26T20:20:11.380Z,6.57
2023-02-26T20:23:16.914Z,4.93
2023-02-26T20:26:23.525Z,4.68
2023-02-26T20:29:26.286Z,5.43
2023-02-26T20:32:31.993Z,5.70
2023-02-26T20:35:34.802Z,5.47
2023-02-26T20:38:40.602Z,5.90
2023-02-26T20:41:45.514Z,7.07
2023-02-26T20:44:50.281Z,5.45
2023-02-26T20:47:52.984Z,5.53
2023-02-26T20:51:02.535Z,4.87
2023-02-26T20:54:11.399Z,5.70
2023-02-26T20:57:14.159Z,6.50
2023-02-26T21:00:17.839Z,4.55
2023-02-26T21:03:25.068Z,6.93
2023-02-26T21:06:27.778Z,6.50
2023-02-26T21:09:30.465Z,7.73
2023-02-26T21:12:35.772Z,5.90
2023-02-26T21:15:38.317Z,7.30
2023-02-26T21:18:43.504Z,6.93
2023-02-26T21:21:49.422Z,7.00
2023-02-26T21:24:52.104Z,4.93
2023-02-26T21:27:54.575Z,5.75
2023-02-26T21:30:57.614Z,6.82
2023-02-26T21:34:23.487Z,7.28
2023-02-26T21:37:29.231Z,5.43
2023-02-26T21:40:35.107Z,5.50
2023-02-26T21:43:38.047Z,5.50
2023-02-26T21:46:57.251Z,6.00
2023-02-26T21:49:59.954Z,6.25
2023-02-26T21:53:02.544Z,6.53
2023-02-26T21:56:07.464Z,5.60
2023-02-26T21:59:14.310Z,6.05
2023-02-26T22:02:17.380Z,5.22
2023-02-26T22:05:22.419Z,4.82
2023-02-26T22:08:24.883Z,7.60
2023-02-26T22:11:28.023Z,5.77
2023-02-26T22:14:33.317Z,8.70
2023-02-26T22:17:36.397Z,5.65
2023-02-26T22:20:41.296Z,6.03
2023-02-26T22:23:44.138Z,5.63
2023-02-26T22:26:48.934Z,5.33
2023-02-26T22:29:51.648Z,6.53
2023-02-26T22:32:54.206Z,7.75
2023-02-26T22:35:58.518Z,6.78
2023-02-26T22:39:07.425Z,5.90
2023-02-26T22:42:12.804Z,5.87
2023-02-26T22:45:17.324Z,5.20
2023-02-26T22:48:20.914Z,4.78
2023-02-26T22:54:46.514Z,5.47
2023-02-26T22:57:48.950Z,6.17
2023-02-26T23:00:58.762Z,5.78
2023-02-26T23:04:03.170Z,6.35
2023-02-26T23:07:05.928Z,6.87
2023-02-26T23:10:11.602Z,5.07
2023-02-26T23:13:16.855Z,4.80
2023-02-26T23:16:19.385Z,5.68
2023-02-26T23:19:22.152Z,4.72
2023-02-26T23:22:25.311Z,4.80
2023-02-26T23:25:29.066Z,5.27
2023-02-26T23:28:31.486Z,4.07
2023-02-26T23:31:34.899Z,3.87
2023-02-26T23:34:37.374Z,6.28
2023-02-26T23:37:42.372Z,5.45
2023-02-26T23:40:52.523Z,6.20
2023-02-26T23:43:55.181Z,8.13
2023-02-26T23:46:59.703Z,5.60
2023-02-26T23:50:05.110Z,5.82
2023-02-26T23:53:10.020Z,4.60
2023-02-26T23:56:12.862Z,4.77
2023-02-26T23:59:18.438Z,6.27
